Time;durP1;ratioP1;P1;durP2;ratioP2;P2;SDS_P1;SDS_P2;PMS_P1;PMS_P2;Temp;Humidity;BMP_temperature;BMP_pressure;BME280_temperature;BME280_humidity;BME280_pressure;Samples;Min_cycle;Max_cycle;Signal;HPM_P1;HPM_P2
2022/12/16 00:00:28;;;;;;;;;;;;;;;;;;5033408;28;20350;-74
2022/12/16 00:02:54;;;;;;;;;;;;;;;;;;5032955;28;20002;-75
2022/12/16 00:05:20;;;;;;;;;;;;;;;;;;5051192;28;19951;-74
2022/12/16 00:07:46;;;;;;;;;;;;;;;;;;5033052;28;20004;-75
2022/12/16 00:10:12;;;;;;;;;;;;;;;;;;5050752;28;19908;-74
2022/12/16 00:12:38;;;;;;;;;;;;;;;;;;5052827;28;19959;-75
2022/12/16 00:15:04;;;;;;;;;;;;;;;;;;5064995;28;19905;-75
2022/12/16 00:17:29;;;;;;;;;;;;;;;;;;5035376;28;20019;-75
2022/12/16 00:19:55;;;;;;;;;;;;;;;;;;5067092;28;19990;-74
2022/12/16 00:22:21;;;;;;;;;;;;;;;;;;5054721;28;19905;-75
2022/12/16 00:24:47;;;;;;;;;;;;;;;;;;5065441;28;19912;-75
2022/12/16 00:27:13;;;;;;;;;;;;;;;;;;5074735;28;19971;-75
2022/12/16 00:29:39;;;;;;;;;;;;;;;;;;5075053;28;19947;-74
2022/12/16 00:32:05;;;;;;;;;;;;;;;;;;5059861;28;19974;-74
2022/12/16 00:34:32;;;;;;;;;;;;;;;;;;5054985;28;20006;-74
2022/12/16 00:36:58;;;;;;;;;;;;;;;;;;5065478;28;19919;-75
2022/12/16 00:39:24;;;;;;;;;;;;;;;;;;5074562;28;19921;-74
2022/12/16 00:41:49;;;;;;;;;;;;;;;;;;5074285;28;19905;-74
2022/12/16 00:44:15;;;;;;;;;;;;;;;;;;5056367;28;19951;-74
2022/12/16 00:46:41;;;;;;;;;;;;;;;;;;5074168;28;19995;-75
2022/12/16 00:49:07;;;;;;;;;;;;;;;;;;5056266;28;19905;-75
2022/12/16 00:51:33;;;;;;;;;;;;;;;;;;5056364;28;19904;-75
2022/12/16 00:53:59;;;;;;;;;;;;;;;;;;5074467;28;19909;-74
2022/12/16 00:56:25;;;;;;;;;;;;;;;;;;5074615;28;19980;-74
2022/12/16 00:58:51;;;;;;;;;;;;;;;;;;5074405;28;19904;-74
2022/12/16 01:01:17;;;;;;;;;;;;;;;;;;5074570;28;20373;-74
2022/12/16 01:03:43;;;;;;;;;;;;;;;;;;5074079;28;20409;-74
2022/12/16 01:06:09;;;;;;;;;;;;;;;;;;5056142;28;19905;-75
2022/12/16 01:08:35;;;;;;;;;;;;;;;;;;5045237;28;19952;-75
2022/12/16 01:11:01;;;;;;;;;;;;;;;;;;5032881;28;19913;-75
2022/12/16 01:13:27;;;;;;;;;;;;;;;;;;5051808;28;19951;-75
2022/12/16 01:15:53;;;;;;;;;;;;;;;;;;5074034;28;19909;-75
2022/12/16 01:18:19;;;;;;;;;;;;;;;;;;5045230;28;20371;-75
2022/12/16 01:20:45;;;;;;;;;;;;;;;;;;5073762;28;19909;-75
2022/12/16 01:23:11;;;;;;;;;;;;;;;;;;5073745;28;19912;-75
2022/12/16 01:25:37;;;;;;;;;;;;;;;;;;5037563;28;19912;-75
2022/12/16 01:28:03;;;;;;;;;;;;;;;;;;5053656;28;19974;-75
2022/12/16 01:30:29;;;;;;;;;;;;;;;;;;5055306;28;19932;-75
2022/12/16 01:32:54;;;;;;;;;;;;;;;;;;5055442;28;20054;-75
2022/12/16 01:35:20;;;;;;;;;;;;;;;;;;5073445;28;19905;-75
2022/12/16 01:37:46;;;;;;;;;;;;;;;;;;5073418;28;19908;-75
2022/12/16 01:40:12;;;;;;;;;;;;;;;;;;5073509;28;19920;-74
2022/12/16 01:42:38;;;;;;;;;;;;;;;;;;5055302;28;19904;-75
2022/12/16 01:45:04;;;;;;;;;;;;;;;;;;5073221;28;19970;-75
2022/12/16 01:47:30;;;;;;;;;;;;;;;;;;5038767;28;19960;-75
2022/12/16 01:49:56;;;;;;;;;;;;;;;;;;5053846;28;19948;-74
2022/12/16 01:52:22;;;;;;;;;;;;;;;;;;5050815;28;19979;-75
2022/12/16 01:54:48;;;;;;;;;;;;;;;;;;5033958;28;19915;-75
2022/12/16 01:57:14;;;;;;;;;;;;;;;;;;5068967;28;20359;-75
2022/12/16 01:59:40;;;;;;;;;;;;;;;;;;5071714;28;19920;-76
2022/12/16 02:02:06;;;;;;;;;;;;;;;;;;5071977;28;19904;-75
2022/12/16 02:04:32;;;;;;;;;;;;;;;;;;5071835;28;19904;-75
2022/12/16 02:06:58;;;;;;;;;;;;;;;;;;5054111;28;19954;-75
2022/12/16 02:09:24;;;;;;;;;;;;;;;;;;5071752;28;19913;-75
2022/12/16 02:11:50;;;;;;;;;;;;;;;;;;5071988;28;19905;-75
2022/12/16 02:14:16;;;;;;;;;;;;;;;;;;5071776;28;20010;-75
2022/12/16 02:16:42;;;;;;;;;;;;;;;;;;5069400;28;20007;-75
2022/12/16 02:19:07;;;;;;;;;;;;;;;;;;5052064;28;19904;-75
2022/12/16 02:21:33;;;;;;;;;;;;;;;;;;5033770;28;20324;-75
2022/12/16 02:23:59;;;;;;;;;;;;;;;;;;5033910;28;20430;-75
2022/12/16 02:26:25;;;;;;;;;;;;;;;;;;5051754;28;19917;-75
2022/12/16 02:28:51;;;;;;;;;;;;;;;;;;5033517;28;19948;-75
2022/12/16 02:31:17;;;;;;;;;;;;;;;;;;5033591;28;19936;-75
2022/12/16 02:33:43;;;;;;;;;;;;;;;;;;5051089;28;19908;-75
2022/12/16 02:36:09;;;;;;;;;;;;;;;;;;5033027;28;19911;-75
2022/12/16 02:38:35;;;;;;;;;;;;;;;;;;5050868;28;19948;-75
2022/12/16 02:41:01;;;;;;;;;;;;;;;;;;5050817;28;19951;-75
2022/12/16 02:43:27;;;;;;;;;;;;;;;;;;5033615;28;19905;-75
2022/12/16 02:45:53;;;;;;;;;;;;;;;;;;5064062;28;19904;-75
2022/12/16 02:48:19;;;;;;;;;;;;;;;;;;5052749;28;19954;-75
2022/12/16 02:50:45;;;;;;;;;;;;;;;;;;5055917;28;20015;-75
2022/12/16 02:53:11;;;;;;;;;;;;;;;;;;5051862;28;20363;-75
2022/12/16 02:55:37;;;;;;;;;;;;;;;;;;5033974;28;19927;-75
2022/12/16 02:58:03;;;;;;;;;;;;;;;;;;5033958;28;19905;-75
2022/12/16 03:00:29;;;;;;;;;;;;;;;;;;5051984;28;20413;-75
2022/12/16 03:02:55;;;;;;;;;;;;;;;;;;5052145;28;20416;-75
2022/12/16 03:05:21;;;;;;;;;;;;;;;;;;5034098;28;20284;-76
2022/12/16 03:07:47;;;;;;;;;;;;;;;;;;5033931;28;19955;-75
2022/12/16 03:10:13;;;;;;;;;;;;;;;;;;5033843;28;19955;-74
2022/12/16 03:12:38;;;;;;;;;;;;;;;;;;5052029;28;19955;-75
2022/12/16 03:15:06;;;;;;;;;;;;;;;;;;5051819;28;19904;-75
2022/12/16 03:17:32;;;;;;;;;;;;;;;;;;5034008;28;19915;-74
2022/12/16 03:19:58;;;;;;;;;;;;;;;;;;5033677;28;19905;-75
2022/12/16 03:22:24;;;;;;;;;;;;;;;;;;5033314;28;19996;-75
2022/12/16 03:24:50;;;;;;;;;;;;;;;;;;5033691;28;19932;-75
2022/12/16 03:27:17;;;;;;;;;;;;;;;;;;5051337;28;20012;-75
2022/12/16 03:29:43;;;;;;;;;;;;;;;;;;5033415;28;19919;-75
2022/12/16 03:32:09;;;;;;;;;;;;;;;;;;5051254;28;20278;-75
2022/12/16 03:34:35;;;;;;;;;;;;;;;;;;5033479;28;20416;-75
2022/12/16 03:37:01;;;;;;;;;;;;;;;;;;5033561;28;19980;-75
2022/12/16 03:39:27;;;;;;;;;;;;;;;;;;5041359;28;20003;-75
2022/12/16 03:41:53;;;;;;;;;;;;;;;;;;5031702;28;20266;-75
2022/12/16 03:44:19;;;;;;;;;;;;;;;;;;5030305;28;19943;-75
2022/12/16 03:46:45;;;;;;;;;;;;;;;;;;5012737;28;19948;-75
2022/12/16 03:49:11;;;;;;;;;;;;;;;;;;5030192;28;19909;-75
2022/12/16 03:51:37;;;;;;;;;;;;;;;;;;5030575;28;20352;-75
2022/12/16 03:54:03;;;;;;;;;;;;;;;;;;5031477;28;19912;-75
2022/12/16 03:56:28;;;;;;;;;;;;;;;;;;5031391;28;20278;-75
2022/12/16 03:58:54;;;;;;;;;;;;;;;;;;5013707;28;20343;-74
2022/12/16 04:01:22;;;;;;;;;;;;;;;;;;5031591;28;20371;-75
2022/12/16 04:03:47;;;;;;;;;;;;;;;;;;5013308;28;19995;-75
2022/12/16 04:06:17;;;;;;;;;;;;;;;;;;5031089;28;19987;-75
2022/12/16 04:08:43;;;;;;;;;;;;;;;;;;5012852;28;19910;-75
2022/12/16 04:24:53;;;;;;;;;;;;;;;;;;5031046;28;20007;-74
2022/12/16 04:27:26;;;;;;;;;;;;;;;;;;5013019;28;19963;-75
